sensor_id;sensor_type;location;lat;lon;timestamp;pressure;altitude;pressure_sealevel;temperature;humidity
6694;BME280;3384;42.628;23.380;2023-06-26T00:01:40;94000.56;;;20.53;100.00
6694;BME280;3384;42.628;23.380;2023-06-26T00:04:08;93988.44;;;20.21;100.00
6694;BME280;3384;42.628;23.380;2023-06-26T00:06:40;93996.06;;;20.38;100.00
6694;BME280;3384;42.628;23.380;2023-06-26T00:09:06;93984.97;;;20.50;100.00
6694;BME280;3384;42.628;23.380;2023-06-26T00:11:37;93986.13;;;20.49;100.00
6694;BME280;3384;42.628;23.380;2023-06-26T00:14:08;93985.13;;;20.34;100.00
6694;BME280;3384;42.628;23.380;2023-06-26T00:16:37;93987.41;;;20.32;100.00
6694;BME280;3384;42.628;23.380;2023-06-26T00:19:03;93976.06;;;20.27;100.00
6694;BME280;3384;42.628;23.380;2023-06-26T00:21:30;93981.72;;;20.41;100.00
6694;BME280;3384;42.628;23.380;2023-06-26T00:23:57;93981.72;;;20.41;100.00
6694;BME280;3384;42.628;23.380;2023-06-26T00:26:24;93992.13;;;20.35;100.00
6694;BME280;3384;42.628;23.380;2023-06-26T00:28:51;93980.94;;;20.14;100.00
6694;BME280;3384;42.628;23.380;2023-06-26T00:31:17;93976.50;;;20.29;100.00
6694;BME280;3384;42.628;23.380;2023-06-26T00:33:46;93969.78;;;20.23;100.00
6694;BME280;3384;42.628;23.380;2023-06-26T00:36:12;93973.63;;;19.96;100.00
6694;BME280;3384;42.628;23.380;2023-06-26T00:38:39;93978.75;;;20.23;100.00
6694;BME280;3384;42.628;23.380;2023-06-26T00:41:06;93984.81;;;20.13;100.00
6694;BME280;3384;42.628;23.380;2023-06-26T00:43:38;93983.03;;;19.98;100.00
6694;BME280;3384;42.628;23.380;2023-06-26T00:46:09;93970.44;;;19.90;100.00
6694;BME280;3384;42.628;23.380;2023-06-26T00:48:36;93963.91;;;19.95;100.00
6694;BME280;3384;42.628;23.380;2023-06-26T00:51:05;93974.22;;;19.82;100.00
6694;BME280;3384;42.628;23.380;2023-06-26T00:53:32;93963.47;;;19.93;100.00
6694;BME280;3384;42.628;23.380;2023-06-26T00:55:59;93961.66;;;20.00;100.00
6694;BME280;3384;42.628;23.380;2023-06-26T00:58:27;93957.03;;;20.04;100.00
6694;BME280;3384;42.628;23.380;2023-06-26T01:00:54;93955.75;;;19.95;100.00
6694;BME280;3384;42.628;23.380;2023-06-26T01:03:22;93966.72;;;19.76;100.00
6694;BME280;3384;42.628;23.380;2023-06-26T01:05:51;93950.72;;;19.71;100.00
6694;BME280;3384;42.628;23.380;2023-06-26T01:08:20;93954.25;;;19.75;100.00
6694;BME280;3384;42.628;23.380;2023-06-26T01:10:48;93948.69;;;19.90;100.00
6694;BME280;3384;42.628;23.380;2023-06-26T01:13:16;93959.19;;;19.92;100.00
6694;BME280;3384;42.628;23.380;2023-06-26T01:15:43;93939.38;;;19.91;100.00
6694;BME280;3384;42.628;23.380;2023-06-26T01:18:10;93933.13;;;19.65;100.00
6694;BME280;3384;42.628;23.380;2023-06-26T01:20:39;93934.94;;;19.80;100.00
6694;BME280;3384;42.628;23.380;2023-06-26T01:23:20;93937.13;;;19.97;100.00
6694;BME280;3384;42.628;23.380;2023-06-26T01:28:31;93934.00;;;19.69;100.00
6694;BME280;3384;42.628;23.380;2023-06-26T01:31:01;93934.78;;;19.95;100.00
6694;BME280;3384;42.628;23.380;2023-06-26T01:33:29;93929.47;;;20.06;100.00
6694;BME280;3384;42.628;23.380;2023-06-26T01:35:56;93924.63;;;19.92;100.00
6694;BME280;3384;42.628;23.380;2023-06-26T01:38:23;93932.09;;;19.99;100.00
6694;BME280;3384;42.628;23.380;2023-06-26T01:40:51;93922.03;;;20.03;100.00
6694;BME280;3384;42.628;23.380;2023-06-26T01:43:23;93915.28;;;19.90;100.00
6694;BME280;3384;42.628;23.380;2023-06-26T01:45:58;93925.25;;;19.82;100.00
6694;BME280;3384;42.628;23.380;2023-06-26T01:48:31;93919.09;;;19.85;100.00
6694;BME280;3384;42.628;23.380;2023-06-26T01:50:59;93923.00;;;19.88;100.00
6694;BME280;3384;42.628;23.380;2023-06-26T01:53:33;93923.22;;;19.76;100.00
6694;BME280;3384;42.628;23.380;2023-06-26T01:56:07;93915.59;;;19.62;100.00
6694;BME280;3384;42.628;23.380;2023-06-26T01:58:35;93919.84;;;19.86;100.00
6694;BME280;3384;42.628;23.380;2023-06-26T02:01:06;93937.03;;;19.90;100.00
6694;BME280;3384;42.628;23.380;2023-06-26T02:03:33;93926.97;;;19.94;100.00
6694;BME280;3384;42.628;23.380;2023-06-26T02:06:00;93918.75;;;19.90;100.00
6694;BME280;3384;42.628;23.380;2023-06-26T02:08:27;93918.44;;;19.69;100.00
6694;BME280;3384;42.628;23.380;2023-06-26T02:10:54;93915.78;;;19.73;100.00
6694;BME280;3384;42.628;23.380;2023-06-26T02:13:20;93916.16;;;19.71;100.00
6694;BME280;3384;42.628;23.380;2023-06-26T02:15:48;93926.81;;;19.83;100.00
6694;BME280;3384;42.628;23.380;2023-06-26T02:18:16;93917.13;;;19.86;100.00
6694;BME280;3384;42.628;23.380;2023-06-26T02:20:43;93925.63;;;19.81;100.00
6694;BME280;3384;42.628;23.380;2023-06-26T02:23:10;93941.81;;;20.00;100.00
6694;BME280;3384;42.628;23.380;2023-06-26T02:25:38;93919.84;;;19.86;100.00
6694;BME280;3384;42.628;23.380;2023-06-26T02:28:04;93926.91;;;19.64;100.00
6694;BME280;3384;42.628;23.380;2023-06-26T02:30:31;93933.34;;;19.79;100.00
6694;BME280;3384;42.628;23.380;2023-06-26T02:32:58;93942.38;;;19.83;100.00
6694;BME280;3384;42.628;23.380;2023-06-26T02:35:26;93924.97;;;19.65;100.00
6694;BME280;3384;42.628;23.380;2023-06-26T02:37:53;93932.00;;;19.92;100.00
6694;BME280;3384;42.628;23.380;2023-06-26T02:40:20;93932.69;;;19.85;100.00
6694;BME280;3384;42.628;23.380;2023-06-26T02:42:46;93936.78;;;19.98;100.00
6694;BME280;3384;42.628;23.380;2023-06-26T02:45:14;93939.91;;;20.00;100.00
6694;BME280;3384;42.628;23.380;2023-06-26T02:47:40;93934.81;;;19.99;100.00
6694;BME280;3384;42.628;23.380;2023-06-26T02:50:08;93932.81;;;19.96;100.00
6694;BME280;3384;42.628;23.380;2023-06-26T02:52:36;93928.94;;;19.71;100.00
6694;BME280;3384;42.628;23.380;2023-06-26T02:55:03;93940.03;;;19.85;100.00
6694;BME280;3384;42.628;23.380;2023-06-26T02:57:30;93932.75;;;19.66;100.00
6694;BME280;3384;42.628;23.380;2023-06-26T02:59:57;93933.44;;;19.86;100.00
6694;BME280;3384;42.628;23.380;2023-06-26T03:02:24;93932.22;;;19.80;100.00
6694;BME280;3384;42.628;23.380;2023-06-26T03:04:51;93943.00;;;19.50;100.00
6694;BME280;3384;42.628;23.380;2023-06-26T03:07:18;93940.72;;;19.78;100.00
6694;BME280;3384;42.628;23.380;2023-06-26T03:09:46;93939.78;;;19.67;100.00
6694;BME280;3384;42.628;23.380;2023-06-26T03:12:13;93939.81;;;19.71;100.00
6694;BME280;3384;42.628;23.380;2023-06-26T03:14:39;93938.25;;;19.70;100.00
6694;BME280;3384;42.628;23.380;2023-06-26T03:17:06;93934.34;;;19.67;100.00
6694;BME280;3384;42.628;23.380;2023-06-26T03:19:33;93936.06;;;19.79;100.00
6694;BME280;3384;42.628;23.380;2023-06-26T03:22:00;93930.41;;;19.65;100.00
6694;BME280;3384;42.628;23.380;2023-06-26T03:24:27;93934.28;;;19.64;100.00
6694;BME280;3384;42.628;23.380;2023-06-26T03:26:55;93936.56;;;19.62;100.00
6694;BME280;3384;42.628;23.380;2023-06-26T03:29:22;93938.09;;;19.59;100.00
6694;BME280;3384;42.628;23.380;2023-06-26T03:31:49;93938.69;;;19.49;100.00
6694;BME280;3384;42.628;23.380;2023-06-26T03:34:16;93939.28;;;19.39;100.00
6694;BME280;3384;42.628;23.380;2023-06-26T03:36:42;93939.97;;;19.55;100.00
6694;BME280;3384;42.628;23.380;2023-06-26T03:39:09;93947.75;;;19.57;100.00
6694;BME280;3384;42.628;23.380;2023-06-26T03:41:36;93937.59;;;19.76;100.00
6694;BME280;3384;42.628;23.380;2023-06-26T03:44:04;93940.81;;;19.59;100.00
6694;BME280;3384;42.628;23.380;2023-06-26T03:46:31;93937.56;;;19.50;100.00
6694;BME280;3384;42.628;23.380;2023-06-26T03:48:58;93925.28;;;19.60;100.00
6694;BME280;3384;42.628;23.380;2023-06-26T03:51:24;93941.97;;;19.36;100.00
6694;BME280;3384;42.628;23.380;2023-06-26T03:53:51;93940.41;;;19.57;100.00
6694;BME280;3384;42.628;23.380;2023-06-26T03:56:18;93942.00;;;19.62;100.00
6694;BME280;3384;42.628;23.380;2023-06-26T03:58:45;93939.00;;;19.67;100.00
6694;BME280;3384;42.628;23.380;2023-06-26T04:01:13;93949.31;;;19.58;100.00
6694;BME280;3384;42.628;23.380;2023-06-26T04:03:40;93939.97;;;19.33;100.00
6694;BME280;3384;42.628;23.380;2023-06-26T04:06:07;93946.47;;;19.51;100.00
6694;BME280;3384;42.628;23.380;2023-06-26T04:08:35;93937.97;;;19.30;100.00
6694;BME280;3384;42.628;23.380;2023-06-26T04:11:02;93929.94;;;19.37;100.00
6694;BME280;3384;42.628;23.380;2023-06-26T04:13:28;93928.31;;;19.32;100.00
6694;BME280;3384;42.628;23.380;2023-06-26T04:15:55;93944.50;;;19.48;100.00
6694;BME280;3384;42.628;23.380;2023-06-26T04:18:23;93932.50;;;19.49;100.00
6694;BME280;3384;42.628;23.380;2023-06-26T04:21:08;93934.09;;;19.76;100.00
6694;BME280;3384;42.628;23.380;2023-06-26T04:23:35;93931.19;;;19.65;100.00
6694;BME280;3384;42.628;23.380;2023-06-26T04:26:02;93932.03;;;19.69;100.00
6694;BME280;3384;42.628;23.380;2023-06-26T04:28:30;93940.25;;;19.73;100.00
6694;BME280;3384;42.628;23.380;2023-06-26T04:30:57;93936.97;;;19.86;100.00
6694;BME280;3384;42.628;23.380;2023-06-26T04:33:25;93950.41;;;20.02;100.00
6694;BME280;3384;42.628;23.380;2023-06-26T04:35:52;93956.22;;;20.00;100.00
6694;BME280;3384;42.628;23.380;2023-06-26T04:38:20;93959.41;;;20.06;100.00
6694;BME280;3384;42.628;23.380;2023-06-26T04:40:47;93955.81;;;19.98;100.00
6694;BME280;3384;42.628;23.380;2023-06-26T04:43:14;93951.13;;;19.99;100.00
6694;BME280;3384;42.628;23.380;2023-06-26T04:45:41;93959.63;;;19.94;100.00
6694;BME280;3384;42.628;23.380;2023-06-26T04:48:08;93971.44;;;20.05;100.00
6694;BME280;3384;42.628;23.380;2023-06-26T04:50:36;93950.41;;;19.76;100.00
6694;BME280;3384;42.628;23.380;2023-06-26T04:53:03;93955.03;;;19.98;100.00
6694;BME280;3384;42.628;23.380;2023-06-26T04:55:30;93964.13;;;19.83;100.00
6694;BME280;3384;42.628;23.380;2023-06-26T04:57:57;93964.22;;;19.90;100.00
6694;BME280;3384;42.628;23.380;2023-06-26T05:00:24;93967.09;;;19.74;100.00
6694;BME280;3384;42.628;23.380;2023-06-26T05:02:51;93956.63;;;19.76;100.00
6694;BME280;3384;42.628;23.380;2023-06-26T05:05:26;93956.47;;;19.66;100.00
6694;BME280;3384;42.628;23.380;2023-06-26T05:11:16;93957.38;;;19.99;100.00
6694;BME280;3384;42.628;23.380;2023-06-26T05:13:43;93959.34;;;20.25;100.00
6694;BME280;3384;42.628;23.380;2023-06-26T05:16:10;93966.66;;;20.21;100.00
6694;BME280;3384;42.628;23.380;2023-06-26T05:18:36;93971.78;;;20.26;100.00
6694;BME280;3384;42.628;23.380;2023-06-26T05:21:04;93966.84;;;20.09;100.00
6694;BME280;3384;42.628;23.380;2023-06-26T05:23:32;93970.53;;;20.20;100.00
6694;BME280;3384;42.628;23.380;2023-06-26T05:26:00;93975.44;;;20.37;100.00
6694;BME280;3384;42.628;23.380;2023-06-26T05:28:29;93981.41;;;20.46;100.00
6694;BME280;3384;42.628;23.380;2023-06-26T05:30:57;93981.41;;;20.46;100.00
6694;BME280;3384;42.628;23.380;2023-06-26T05:33:25;93976.91;;;20.31;100.00
6694;BME280;3384;42.628;23.380;2023-06-26T05:35:53;93974.44;;;20.22;100.00
6694;BME280;3384;42.628;23.380;2023-06-26T05:38:23;93985.81;;;20.28;100.00
6694;BME280;3384;42.628;23.380;2023-06-26T05:41:04;93988.97;;;20.59;100.00
6694;BME280;3384;42.628;23.380;2023-06-26T05:43:32;93985.50;;;20.62;100.00
6694;BME280;3384;42.628;23.380;2023-06-26T05:45:59;93974.94;;;20.28;100.00
6694;BME280;3384;42.628;23.380;2023-06-26T05:48:26;93980.13;;;20.66;100.00
6694;BME280;3384;42.628;23.380;2023-06-26T05:50:53;93980.56;;;20.42;100.00
6694;BME280;3384;42.628;23.380;2023-06-26T05:53:21;93984.53;;;20.48;100.00
6694;BME280;3384;42.628;23.380;2023-06-26T05:55:48;93980.81;;;20.59;100.00
6694;BME280;3384;42.628;23.380;2023-06-26T06:01:38;93982.66;;;20.81;100.00
6694;BME280;3384;42.628;23.380;2023-06-26T06:04:05;93997.28;;;20.70;100.00
6694;BME280;3384;42.628;23.380;2023-06-26T06:06:32;93993.97;;;20.54;100.00
6694;BME280;3384;42.628;23.380;2023-06-26T06:08:59;93993.13;;;20.50;100.00
6694;BME280;3384;42.628;23.380;2023-06-26T06:11:25;93987.53;;;20.39;100.00
6694;BME280;3384;42.628;23.380;2023-06-26T06:13:52;93994.13;;;20.68;100.00
6694;BME280;3384;42.628;23.380;2023-06-26T06:16:19;93973.09;;;20.65;100.00
6694;BME280;3384;42.628;23.380;2023-06-26T06:18:48;93982.25;;;20.83;100.00
6694;BME280;3384;42.628;23.380;2023-06-26T06:21:14;93986.63;;;20.58;100.00
6694;BME280;3384;42.628;23.380;2023-06-26T06:23:41;93985.50;;;20.62;100.00
6694;BME280;3384;42.628;23.380;2023-06-26T06:26:08;93987.25;;;20.77;100.00
6694;BME280;3384;42.628;23.380;2023-06-26T06:28:35;93976.41;;;20.81;100.00
6694;BME280;3384;42.628;23.380;2023-06-26T06:31:02;93972.03;;;20.73;100.00
6694;BME280;3384;42.628;23.380;2023-06-26T06:33:29;93979.22;;;20.88;100.00
6694;BME280;3384;42.628;23.380;2023-06-26T06:35:58;93982.56;;;20.74;100.00
6694;BME280;3384;42.628;23.380;2023-06-26T06:41:46;93986.22;;;21.18;100.00
6694;BME280;3384;42.628;23.380;2023-06-26T06:44:13;93982.25;;;21.12;100.00
6694;BME280;3384;42.628;23.380;2023-06-26T06:46:40;93987.53;;;21.31;100.00
6694;BME280;3384;42.628;23.380;2023-06-26T06:49:15;93993.06;;;21.38;100.00
6694;BME280;3384;42.628;23.380;2023-06-26T06:51:43;93986.28;;;21.22;100.00
6694;BME280;3384;42.628;23.380;2023-06-26T06:54:10;93980.91;;;21.32;100.00
6694;BME280;3384;42.628;23.380;2023-06-26T06:56:37;93976.56;;;21.28;100.00
6694;BME280;3384;42.628;23.380;2023-06-26T06:59:04;93995.91;;;21.49;100.00
6694;BME280;3384;42.628;23.380;2023-06-26T07:01:30;93983.47;;;21.51;100.00
6694;BME280;3384;42.628;23.380;2023-06-26T07:03:57;93984.94;;;21.42;100.00
6694;BME280;3384;42.628;23.380;2023-06-26T07:06:24;93988.16;;;21.54;100.00
6694;BME280;3384;42.628;23.380;2023-06-26T07:08:55;93979.78;;;21.37;100.00
6694;BME280;3384;42.628;23.380;2023-06-26T07:11:22;93983.16;;;21.60;100.00
6694;BME280;3384;42.628;23.380;2023-06-26T07:13:48;93977.00;;;21.70;100.00
6694;BME280;3384;42.628;23.380;2023-06-26T07:16:15;93970.91;;;21.84;100.00
6694;BME280;3384;42.628;23.380;2023-06-26T07:18:42;93983.75;;;21.80;100.00
6694;BME280;3384;42.628;23.380;2023-06-26T07:21:09;93971.72;;;21.88;100.00
6694;BME280;3384;42.628;23.380;2023-06-26T07:23:36;93972.78;;;21.76;100.00
6694;BME280;3384;42.628;23.380;2023-06-26T07:26:04;93986.53;;;21.90;100.00
6694;BME280;3384;42.628;23.380;2023-06-26T07:28:31;93988.53;;;21.93;100.00
6694;BME280;3384;42.628;23.380;2023-06-26T07:30:57;93977.19;;;21.88;100.00
6694;BME280;3384;42.628;23.380;2023-06-26T07:33:24;93984.56;;;21.84;100.00
6694;BME280;3384;42.628;23.380;2023-06-26T07:35:51;93988.16;;;21.95;100.00
6694;BME280;3384;42.628;23.380;2023-06-26T07:38:18;93987.06;;;22.06;100.00
6694;BME280;3384;42.628;23.380;2023-06-26T07:40:45;93976.16;;;22.06;100.00
6694;BME280;3384;42.628;23.380;2023-06-26T07:43:13;93990.19;;;22.05;100.00
6694;BME280;3384;42.628;23.380;2023-06-26T07:45:40;93979.78;;;22.21;100.00
6694;BME280;3384;42.628;23.380;2023-06-26T07:48:06;93984.41;;;22.13;100.00
6694;BME280;3384;42.628;23.380;2023-06-26T07:50:34;93983.69;;;22.23;100.00
6694;BME280;3384;42.628;23.380;2023-06-26T07:53:01;93986.47;;;22.34;100.00
6694;BME280;3384;42.628;23.380;2023-06-26T07:55:28;93993.31;;;22.61;100.00
6694;BME280;3384;42.628;23.380;2023-06-26T07:57:55;93994.63;;;22.23;100.00
6694;BME280;3384;42.628;23.380;2023-06-26T08:00:23;93993.59;;;22.45;100.00
6694;BME280;3384;42.628;23.380;2023-06-26T08:02:51;94002.16;;;22.40;100.00
6694;BME280;3384;42.628;23.380;2023-06-26T08:05:19;93983.75;;;22.30;100.00
6694;BME280;3384;42.628;23.380;2023-06-26T08:07:46;93982.63;;;22.38;100.00
6694;BME280;3384;42.628;23.380;2023-06-26T08:10:13;93993.34;;;22.64;100.00
6694;BME280;3384;42.628;23.380;2023-06-26T08:12:40;93982.06;;;22.76;100.00
6694;BME280;3384;42.628;23.380;2023-06-26T08:15:08;93975.06;;;22.75;100.00
6694;BME280;3384;42.628;23.380;2023-06-26T08:17:37;93991.50;;;22.89;100.00
6694;BME280;3384;42.628;23.380;2023-06-26T08:20:05;93976.69;;;22.87;100.00
6694;BME280;3384;42.628;23.380;2023-06-26T08:22:33;93984.94;;;23.01;100.00
6694;BME280;3384;42.628;23.380;2023-06-26T08:25:00;93990.78;;;23.03;100.00
6694;BME280;3384;42.628;23.380;2023-06-26T08:27:27;93976.56;;;22.69;100.00
6694;BME280;3384;42.628;23.380;2023-06-26T08:29:54;93996.94;;;22.86;100.00
6694;BME280;3384;42.628;23.380;2023-06-26T08:32:20;93986.03;;;22.82;100.00
6694;BME280;3384;42.628;23.380;2023-06-26T08:34:49;93993.13;;;23.04;100.00
6694;BME280;3384;42.628;23.380;2023-06-26T08:37:16;93990.81;;;23.10;100.00
6694;BME280;3384;42.628;23.380;2023-06-26T08:39:43;93989.31;;;23.19;100.00
6694;BME280;3384;42.628;23.380;2023-06-26T08:42:10;93991.63;;;23.17;100.00
6694;BME280;3384;42.628;23.380;2023-06-26T08:44:37;93991.34;;;23.40;100.00
6694;BME280;3384;42.628;23.380;2023-06-26T08:47:04;93975.31;;;23.38;100.00
6694;BME280;3384;42.628;23.380;2023-06-26T08:49:37;93983.03;;;23.15;100.00
6694;BME280;3384;42.628;23.380;2023-06-26T08:52:17;93987.44;;;23.37;100.00
6694;BME280;3384;42.628;23.380;2023-06-26T08:54:46;93988.50;;;23.08;100.00
6694;BME280;3384;42.628;23.380;2023-06-26T08:57:18;93999.16;;;22.59;100.00
6694;BME280;3384;42.628;23.380;2023-06-26T08:59:46;93982.06;;;22.76;100.00
6694;BME280;3384;42.628;23.380;2023-06-26T09:02:14;93988.38;;;22.84;100.00
6694;BME280;3384;42.628;23.380;2023-06-26T09:04:48;93985.31;;;23.03;100.00
6694;BME280;3384;42.628;23.380;2023-06-26T09:07:16;93986.63;;;23.26;100.00
6694;BME280;3384;42.628;23.380;2023-06-26T09:09:43;93980.75;;;23.24;100.00
6694;BME280;3384;42.628;23.380;2023-06-26T09:12:10;93998.31;;;23.23;100.00
6694;BME280;3384;42.628;23.380;2023-06-26T09:14:37;93985.03;;;23.25;100.00
6694;BME280;3384;42.628;23.380;2023-06-26T09:17:04;93981.06;;;23.16;100.00
6694;BME280;3384;42.628;23.380;2023-06-26T09:19:31;93984.66;;;23.23;100.00
6694;BME280;3384;42.628;23.380;2023-06-26T09:21:58;93986.25;;;23.28;100.00
6694;BME280;3384;42.628;23.380;2023-06-26T09:24:34;93978.44;;;23.33;100.00
6694;BME280;3384;42.628;23.380;2023-06-26T09:30:25;93977.72;;;23.64;100.00
6694;BME280;3384;42.628;23.380;2023-06-26T09:40:14;93990.63;;;23.67;100.00
6694;BME280;3384;42.628;23.380;2023-06-26T09:42:42;93980.44;;;23.50;100.00
6694;BME280;3384;42.628;23.380;2023-06-26T09:45:17;93983.19;;;23.82;100.00
6694;BME280;3384;42.628;23.380;2023-06-26T09:47:44;93984.34;;;23.56;100.00
6694;BME280;3384;42.628;23.380;2023-06-26T09:50:21;93967.16;;;23.70;100.00
6694;BME280;3384;42.628;23.380;2023-06-26T09:52:50;93983.56;;;23.66;100.00
6694;BME280;3384;42.628;23.380;2023-06-26T09:55:19;93989.47;;;23.75;100.00
6694;BME280;3384;42.628;23.380;2023-06-26T09:57:47;93980.78;;;23.38;100.00
6694;BME280;3384;42.628;23.380;2023-06-26T10:00:16;93978.44;;;23.44;100.00
6694;BME280;3384;42.628;23.380;2023-06-26T10:02:43;93987.03;;;23.42;100.00
6694;BME280;3384;42.628;23.380;2023-06-26T10:05:10;93983.13;;;23.36;100.00
6694;BME280;3384;42.628;23.380;2023-06-26T10:07:38;93983.13;;;23.36;100.00
6694;BME280;3384;42.628;23.380;2023-06-26T10:10:07;93983.13;;;23.36;100.00
6694;BME280;3384;42.628;23.380;2023-06-26T10:12:36;93980.78;;;23.45;100.00
6694;BME280;3384;42.628;23.380;2023-06-26T10:15:03;93964.78;;;23.44;100.00
6694;BME280;3384;42.628;23.380;2023-06-26T10:17:34;93972.19;;;23.36;100.00
6694;BME280;3384;42.628;23.380;2023-06-26T10:20:03;93983.16;;;23.54;100.00
6694;BME280;3384;42.628;23.380;2023-06-26T10:22:36;93971.81;;;23.48;100.00
6694;BME280;3384;42.628;23.380;2023-06-26T10:25:06;93976.16;;;23.70;100.00
6694;BME280;3384;42.628;23.380;2023-06-26T10:27:38;93977.31;;;23.76;100.00
6694;BME280;3384;42.628;23.380;2023-06-26T10:30:12;93968.38;;;23.90;100.00
6694;BME280;3384;42.628;23.380;2023-06-26T10:32:40;93962.47;;;23.77;100.00
6694;BME280;3384;42.628;23.380;2023-06-26T10:35:10;93968.75;;;23.81;100.00
6694;BME280;3384;42.628;23.380;2023-06-26T10:37:44;93992.59;;;23.74;100.00
6694;BME280;3384;42.628;23.380;2023-06-26T10:40:12;93970.66;;;23.56;100.00
6694;BME280;3384;42.628;23.380;2023-06-26T10:42:40;93976.13;;;23.63;100.00
6694;BME280;3384;42.628;23.380;2023-06-26T10:45:11;93970.66;;;23.63;100.00
6694;BME280;3384;42.628;23.380;2023-06-26T10:47:41;93966.75;;;23.61;100.00
6694;BME280;3384;42.628;23.380;2023-06-26T10:50:19;93977.72;;;23.64;100.00
6694;BME280;3384;42.628;23.380;2023-06-26T10:53:13;93978.88;;;23.53;100.00
6694;BME280;3384;42.628;23.380;2023-06-26T10:55:42;93967.91;;;23.56;100.00
6694;BME280;3384;42.628;23.380;2023-06-26T10:58:28;93962.03;;;23.37;100.00
6694;BME280;3384;42.628;23.380;2023-06-26T11:01:22;93965.19;;;23.53;100.00
6694;BME280;3384;42.628;23.380;2023-06-26T11:04:01;93972.09;;;23.12;100.00
6694;BME280;3384;42.628;23.380;2023-06-26T11:06:28;93960.09;;;23.48;100.00
6694;BME280;3384;42.628;23.380;2023-06-26T11:09:00;93949.97;;;23.59;100.00
6694;BME280;3384;42.628;23.380;2023-06-26T11:11:55;93962.81;;;23.48;100.00
6694;BME280;3384;42.628;23.380;2023-06-26T11:14:26;93952.69;;;23.62;100.00
6694;BME280;3384;42.628;23.380;2023-06-26T11:16:55;93951.88;;;23.55;100.00
6694;BME280;3384;42.628;23.380;2023-06-26T11:19:22;93953.84;;;23.54;100.00
6694;BME280;3384;42.628;23.380;2023-06-26T11:21:49;93963.63;;;23.62;100.00
6694;BME280;3384;42.628;23.380;2023-06-26T11:24:17;93958.19;;;23.80;100.00
6694;BME280;3384;42.628;23.380;2023-06-26T11:26:45;93960.91;;;23.90;100.00
6694;BME280;3384;42.628;23.380;2023-06-26T11:29:12;93952.75;;;24.01;100.00
6694;BME280;3384;42.628;23.380;2023-06-26T11:31:42;93964.84;;;23.93;99.81
6694;BME280;3384;42.628;23.380;2023-06-26T11:34:10;93962.88;;;23.76;97.59
6694;BME280;3384;42.628;23.380;2023-06-26T11:36:37;93942.53;;;23.77;98.52
6694;BME280;3384;42.628;23.380;2023-06-26T11:39:06;93955.84;;;23.85;99.15
6694;BME280;3384;42.628;23.380;2023-06-26T11:41:34;93940.22;;;23.93;100.00
6694;BME280;3384;42.628;23.380;2023-06-26T11:44:02;93952.69;;;23.83;100.00
6694;BME280;3384;42.628;23.380;2023-06-26T11:46:29;93966.78;;;23.92;100.00
6694;BME280;3384;42.628;23.380;2023-06-26T11:48:58;93942.94;;;23.75;99.87
6694;BME280;3384;42.628;23.380;2023-06-26T11:51:27;93953.84;;;23.72;98.69
6694;BME280;3384;42.628;23.380;2023-06-26T11:53:54;93947.63;;;23.78;100.00
6694;BME280;3384;42.628;23.380;2023-06-26T11:56:20;93944.09;;;23.92;100.00
6694;BME280;3384;42.628;23.380;2023-06-26T11:58:59;93943.72;;;24.18;99.34
6694;BME280;3384;42.628;23.380;2023-06-26T12:01:31;93964.88;;;24.21;96.25
6694;BME280;3384;42.628;23.380;2023-06-26T12:04:01;93946.84;;;24.06;92.93
6694;BME280;3384;42.628;23.380;2023-06-26T12:06:29;93936.69;;;24.21;94.23
6694;BME280;3384;42.628;23.380;2023-06-26T12:09:00;93957.81;;;23.99;97.88
6694;BME280;3384;42.628;23.380;2023-06-26T12:11:27;93949.59;;;23.88;100.00
6694;BME280;3384;42.628;23.380;2023-06-26T12:13:56;93937.88;;;24.02;96.17
6694;BME280;3384;42.628;23.380;2023-06-26T12:16:23;93943.34;;;24.02;99.84
6694;BME280;3384;42.628;23.380;2023-06-26T12:18:54;93927.28;;;24.22;99.68
6694;BME280;3384;42.628;23.380;2023-06-26T12:21:47;93937.06;;;24.08;95.64
6694;BME280;3384;42.628;23.380;2023-06-26T12:24:18;93936.28;;;24.26;98.80
6694;BME280;3384;42.628;23.380;2023-06-26T12:26:47;93935.88;;;24.38;94.41
6694;BME280;3384;42.628;23.380;2023-06-26T12:29:15;93933.50;;;24.43;92.04
6694;BME280;3384;42.628;23.380;2023-06-26T12:31:43;93937.03;;;24.44;93.03
6694;BME280;3384;42.628;23.380;2023-06-26T12:34:12;93931.97;;;24.42;90.31
6694;BME280;3384;42.628;23.380;2023-06-26T12:36:45;93934.69;;;24.32;92.96
6694;BME280;3384;42.628;23.380;2023-06-26T12:39:12;93929.22;;;24.39;95.01
6694;BME280;3384;42.628;23.380;2023-06-26T12:41:47;93940.94;;;24.36;87.14
6694;BME280;3384;42.628;23.380;2023-06-26T12:44:21;93938.97;;;24.47;89.87
6694;BME280;3384;42.628;23.380;2023-06-26T12:46:49;93922.91;;;24.59;90.06
6694;BME280;3384;42.628;23.380;2023-06-26T12:49:16;93927.63;;;24.48;90.49
6694;BME280;3384;42.628;23.380;2023-06-26T12:51:46;93913.91;;;24.59;91.59
6694;BME280;3384;42.628;23.380;2023-06-26T12:54:13;93929.94;;;24.64;87.62
6694;BME280;3384;42.628;23.380;2023-06-26T12:56:40;93952.25;;;24.73;91.14
6694;BME280;3384;42.628;23.380;2023-06-26T12:59:07;93943.25;;;24.69;89.43
6694;BME280;3384;42.628;23.380;2023-06-26T13:01:34;93933.84;;;24.80;91.98
6694;BME280;3384;42.628;23.380;2023-06-26T13:04:01;93925.66;;;24.63;93.06
6694;BME280;3384;42.628;23.380;2023-06-26T13:06:29;93936.59;;;24.70;97.27
6694;BME280;3384;42.628;23.380;2023-06-26T13:09:00;93931.13;;;24.45;97.04
6694;BME280;3384;42.628;23.380;2023-06-26T13:11:29;93929.66;;;24.20;98.25
6694;BME280;3384;42.628;23.380;2023-06-26T13:13:56;93931.19;;;24.35;100.00
6694;BME280;3384;42.628;23.380;2023-06-26T13:16:23;93943.72;;;24.32;100.00
6694;BME280;3384;42.628;23.380;2023-06-26T13:19:10;93949.59;;;24.17;100.00
6694;BME280;3384;42.628;23.380;2023-06-26T13:21:37;93944.50;;;24.19;100.00
6694;BME280;3384;42.628;23.380;2023-06-26T13:24:05;93941.75;;;24.19;100.00
6694;BME280;3384;42.628;23.380;2023-06-26T13:26:33;93952.72;;;24.15;100.00
6694;BME280;3384;42.628;23.380;2023-06-26T13:29:01;93943.34;;;24.16;100.00
6694;BME280;3384;42.628;23.380;2023-06-26T13:42:22;93946.44;;;24.29;100.00
6694;BME280;3384;42.628;23.380;2023-06-26T13:48:10;93951.16;;;24.25;100.00